createdAt,value
2023-11-05T07:12:07.220Z,100.00
2023-11-05T07:14:33.927Z,100.00
2023-11-05T07:17:00.549Z,100.00
2023-11-05T07:19:27.387Z,100.00
2023-11-05T07:21:54.107Z,100.00
2023-11-05T07:24:21.172Z,100.00
2023-11-05T07:26:48.259Z,100.00
2023-11-05T07:29:15.770Z,100.00
2023-11-05T07:31:43.363Z,100.00
2023-11-05T07:34:11.726Z,100.00
2023-11-05T07:36:39.431Z,100.00
2023-11-05T07:39:08.555Z,100.00
2023-11-05T07:41:35.608Z,100.00
2023-11-05T07:44:02.320Z,100.00
2023-11-05T07:46:29.674Z,100.00
2023-11-05T07:48:56.360Z,100.00
2023-11-05T07:51:24.051Z,100.00
2023-11-05T07:53:50.780Z,100.00
2023-11-05T07:56:18.003Z,100.00
2023-11-05T07:58:46.219Z,100.00
2023-11-05T08:01:16.247Z,100.00
2023-11-05T08:03:43.021Z,100.00
2023-11-05T08:06:09.885Z,100.00
2023-11-05T08:08:36.564Z,100.00
2023-11-05T08:11:05.035Z,100.00
2023-11-05T08:13:32.432Z,100.00
2023-11-05T08:15:59.724Z,100.00
2023-11-05T08:18:26.682Z,100.00
2023-11-05T08:20:54.545Z,100.00
2023-11-05T08:23:21.465Z,100.00
2023-11-05T08:25:48.820Z,100.00
2023-11-05T08:28:25.403Z,100.00
2023-11-05T08:30:54.121Z,99.07
2023-11-05T08:33:21.169Z,96.20
2023-11-05T08:35:48.348Z,99.66
2023-11-05T08:38:15.121Z,100.00
2023-11-05T08:40:42.107Z,96.36
2023-11-05T08:43:08.893Z,98.40
2023-11-05T08:45:43.244Z,100.00
2023-11-05T08:48:15.288Z,100.00
2023-11-05T08:50:42.778Z,100.00
2023-11-05T08:53:09.521Z,100.00
2023-11-05T08:55:39.434Z,100.00
2023-11-05T08:58:06.308Z,100.00
2023-11-05T09:00:36.581Z,100.00
2023-11-05T09:03:08.434Z,100.00
2023-11-05T09:05:35.119Z,100.00
2023-11-05T09:08:01.770Z,100.00
2023-11-05T09:10:28.607Z,100.00
2023-11-05T09:12:56.172Z,100.00
2023-11-05T09:15:24.089Z,100.00
2023-11-05T09:17:51.131Z,100.00
2023-11-05T09:20:20.684Z,100.00
2023-11-05T09:22:48.274Z,100.00
2023-11-05T09:25:15.733Z,100.00
2023-11-05T09:27:42.796Z,100.00
2023-11-05T09:30:15.670Z,99.75
2023-11-05T09:32:43.885Z,99.86
2023-11-05T09:35:13.939Z,100.00
2023-11-05T09:37:45.211Z,99.69
2023-11-05T09:40:13.493Z,99.28
2023-11-05T09:43:06.048Z,100.00
2023-11-05T09:45:37.010Z,99.67
2023-11-05T09:48:04.417Z,98.42
2023-11-05T09:50:33.264Z,98.68
2023-11-05T09:53:11.562Z,98.09
2023-11-05T09:55:42.265Z,94.90
2023-11-05T09:58:10.525Z,94.64
2023-11-05T10:00:38.519Z,93.58
2023-11-05T10:03:14.140Z,92.57
2023-11-05T10:05:45.104Z,92.29
2023-11-05T10:08:13.133Z,94.93
2023-11-05T10:10:42.735Z,97.58
2023-11-05T10:13:09.570Z,97.12
2023-11-05T10:15:37.998Z,96.62
2023-11-05T10:18:05.369Z,97.94
2023-11-05T10:20:32.460Z,96.71
2023-11-05T10:23:07.005Z,96.45
2023-11-05T10:25:35.262Z,99.03
2023-11-05T10:28:01.975Z,98.93
2023-11-05T10:30:31.856Z,97.26
2023-11-05T10:33:01.569Z,97.48
2023-11-05T10:35:29.295Z,90.51
2023-11-05T10:37:57.584Z,83.82
2023-11-05T10:40:25.214Z,78.36
2023-11-05T10:42:52.397Z,77.71
2023-11-05T10:45:20.608Z,78.02
2023-11-05T10:47:47.460Z,75.56
2023-11-05T10:50:21.008Z,75.60
2023-11-05T10:52:54.519Z,75.04
2023-11-05T10:55:37.241Z,74.07
2023-11-05T10:58:14.802Z,72.79
2023-11-05T11:01:04.522Z,73.71
2023-11-05T11:03:31.688Z,72.96
2023-11-05T11:06:03.938Z,72.43
2023-11-05T11:08:33.921Z,71.04
2023-11-05T11:11:13.572Z,70.24
2023-11-05T11:13:56.184Z,69.78
2023-11-05T11:16:29.728Z,70.18
2023-11-05T11:18:57.508Z,69.31
2023-11-05T11:21:25.460Z,68.56
2023-11-05T11:23:53.120Z,68.66
2023-11-05T11:26:21.400Z,66.67
2023-11-05T11:28:58.394Z,65.73
2023-11-05T11:31:27.210Z,65.66
2023-11-05T11:33:53.929Z,66.15
2023-11-05T11:36:21.068Z,65.61
2023-11-05T11:38:48.477Z,65.35
2023-11-05T11:41:15.280Z,65.00
2023-11-05T11:43:42.164Z,64.94
2023-11-05T11:46:09.210Z,64.87
2023-11-05T11:48:35.903Z,62.72
2023-11-05T11:51:11.504Z,64.75
2023-11-05T11:53:48.754Z,63.88
2023-11-05T11:56:15.561Z,64.32
2023-11-05T11:58:42.727Z,64.00
2023-11-05T12:01:15.374Z,64.78
2023-11-05T12:03:44.149Z,64.76
2023-11-05T12:06:11.297Z,63.04
2023-11-05T12:08:39.839Z,62.79
2023-11-05T12:11:10.842Z,63.49
2023-11-05T12:13:40.144Z,62.77
2023-11-05T12:16:12.299Z,62.80
2023-11-05T12:18:39.950Z,63.19
2023-11-05T12:21:09.159Z,63.37
2023-11-05T12:26:05.532Z,64.82
2023-11-05T12:28:33.207Z,65.98
2023-11-05T12:31:10.569Z,68.75
2023-11-05T12:33:39.586Z,69.11
2023-11-05T12:36:11.380Z,70.49
2023-11-05T12:38:38.364Z,71.14
2023-11-05T12:41:05.716Z,69.80
2023-11-05T12:43:32.559Z,69.45
2023-11-05T12:46:02.384Z,68.54
2023-11-05T12:48:32.521Z,68.84
2023-11-05T12:51:04.318Z,68.66
2023-11-05T12:53:33.575Z,67.83
2023-11-05T12:56:11.603Z,71.28
2023-11-05T12:58:41.355Z,75.61
2023-11-05T13:01:08.140Z,77.49
2023-11-05T13:03:36.571Z,79.25
2023-11-05T13:06:07.920Z,78.98
2023-11-05T13:08:35.824Z,79.62
2023-11-05T13:11:06.716Z,79.58
2023-11-05T13:13:34.208Z,79.73
2023-11-05T13:16:01.344Z,83.17
2023-11-05T13:18:28.166Z,83.73
2023-11-05T13:20:54.952Z,86.94
2023-11-05T13:23:22.899Z,89.37
2023-11-05T13:25:49.744Z,93.22
2023-11-05T13:28:16.398Z,93.32
2023-11-05T13:30:43.204Z,96.87
2023-11-05T13:33:09.991Z,100.00
2023-11-05T13:35:36.754Z,100.00
2023-11-05T13:38:07.633Z,100.00
2023-11-05T13:40:35.586Z,100.00
2023-11-05T13:43:02.504Z,100.00
2023-11-05T13:45:29.167Z,100.00
2023-11-05T13:47:56.169Z,100.00
2023-11-05T13:50:23.185Z,100.00
2023-11-05T13:52:50.174Z,100.00
2023-11-05T13:55:17.005Z,100.00
2023-11-05T13:57:43.750Z,100.00
2023-11-05T14:00:14.987Z,100.00
2023-11-05T14:02:42.579Z,100.00
2023-11-05T14:05:09.926Z,100.00
2023-11-05T14:07:38.616Z,100.00
2023-11-05T14:10:09.849Z,100.00
2023-11-05T14:12:37.192Z,100.00
2023-11-05T14:15:08.098Z,100.00
2023-11-05T14:17:35.885Z,100.00
2023-11-05T14:20:08.185Z,100.00
2023-11-05T14:22:34.934Z,100.00
2023-11-05T14:25:01.754Z,100.00
2023-11-05T14:27:28.625Z,100.00
2023-11-05T14:29:59.197Z,100.00
2023-11-05T14:32:26.067Z,100.00
2023-11-05T14:34:52.973Z,100.00
2023-11-05T14:37:20.187Z,100.00
2023-11-05T14:39:47.002Z,100.00
2023-11-05T14:42:14.115Z,100.00
2023-11-05T14:44:44.149Z,100.00
2023-11-05T14:47:11.150Z,100.00
2023-11-05T14:49:38.931Z,100.00
2023-11-05T14:52:08.053Z,100.00
2023-11-05T14:54:37.008Z,100.00
2023-11-05T14:57:04.830Z,100.00
2023-11-05T14:59:31.669Z,100.00
2023-11-05T15:01:58.529Z,100.00
2023-11-05T15:04:25.239Z,100.00
2023-11-05T15:06:52.050Z,100.00
2023-11-05T15:09:18.725Z,100.00
2023-11-05T15:11:45.678Z,100.00
2023-11-05T15:14:13.470Z,100.00
2023-11-05T15:16:40.348Z,100.00
2023-11-05T15:19:07.057Z,99.29
2023-11-05T15:21:33.715Z,100.00
2023-11-05T15:24:00.493Z,100.00
2023-11-05T15:26:27.817Z,100.00
2023-11-05T15:28:54.643Z,100.00
2023-11-05T15:31:21.808Z,100.00
2023-11-05T15:33:54.748Z,100.00
2023-11-05T15:36:25.554Z,100.00
2023-11-05T15:38:52.359Z,100.00
2023-11-05T15:41:20.214Z,100.00
2023-11-05T15:43:47.537Z,100.00
2023-11-05T15:46:14.976Z,100.00
2023-11-05T15:48:42.217Z,100.00
2023-11-05T15:51:08.918Z,100.00
2023-11-05T15:53:35.697Z,100.00
2023-11-05T15:56:02.542Z,100.00
2023-11-05T15:58:29.371Z,100.00
2023-11-05T16:00:56.012Z,100.00
2023-11-05T16:03:22.790Z,100.00
2023-11-05T16:05:49.553Z,100.00
2023-11-05T16:08:16.214Z,100.00
2023-11-05T16:10:43.825Z,100.00
2023-11-05T16:13:10.590Z,100.00
2023-11-05T16:15:37.361Z,100.00
2023-11-05T16:18:04.155Z,100.00
2023-11-05T16:20:31.226Z,100.00
2023-11-05T16:23:01.185Z,100.00
2023-11-05T16:25:28.017Z,100.00
2023-11-05T16:27:54.649Z,100.00
2023-11-05T16:30:21.467Z,100.00
2023-11-05T16:32:48.294Z,100.00
2023-11-05T16:35:15.167Z,100.00
2023-11-05T16:37:42.109Z,100.00
2023-11-05T16:40:10.876Z,100.00
2023-11-05T16:42:37.771Z,100.00
2023-11-05T16:45:06.742Z,100.00
2023-11-05T16:47:33.670Z,100.00
2023-11-05T16:50:00.701Z,100.00
2023-11-05T16:52:27.370Z,100.00
2023-11-05T16:54:56.976Z,100.00
2023-11-05T16:57:24.180Z,100.00
2023-11-05T16:59:50.877Z,100.00
2023-11-05T17:02:17.828Z,100.00
2023-11-05T17:04:47.842Z,100.00
2023-11-05T17:07:15.091Z,100.00
2023-11-05T17:09:42.089Z,100.00
2023-11-05T17:12:09.188Z,100.00
2023-11-05T17:14:35.972Z,100.00
2023-11-05T17:17:02.750Z,100.00
2023-11-05T17:19:30.448Z,100.00
2023-11-05T17:21:57.393Z,100.00
2023-11-05T17:24:24.118Z,100.00
2023-11-05T17:26:51.557Z,100.00
2023-11-05T17:29:19.845Z,100.00
2023-11-05T17:31:46.933Z,100.00
2023-11-05T17:34:13.912Z,100.00
2023-11-05T17:36:40.694Z,100.00
2023-11-05T17:39:11.853Z,100.00
2023-11-05T17:41:41.729Z,100.00
2023-11-05T17:44:08.518Z,100.00
2023-11-05T17:46:36.628Z,100.00
2023-11-05T17:49:04.816Z,100.00
2023-11-05T17:51:31.624Z,100.00
2023-11-05T17:53:58.935Z,100.00
2023-11-05T17:56:28.900Z,100.00
2023-11-05T17:58:56.782Z,100.00
2023-11-05T18:01:23.444Z,100.00
2023-11-05T18:03:50.227Z,100.00
2023-11-05T18:06:17.067Z,100.00
2023-11-05T18:08:43.902Z,100.00
2023-11-05T18:11:10.661Z,100.00
2023-11-05T18:13:37.610Z,100.00
2023-11-05T18:16:08.166Z,98.71
2023-11-05T18:18:35.323Z,100.00
2023-11-05T18:21:02.436Z,100.00
2023-11-05T18:23:29.346Z,99.85
2023-11-05T18:25:56.336Z,99.71
2023-11-05T18:28:23.073Z,99.21
2023-11-05T18:30:49.771Z,96.72
2023-11-05T18:33:16.616Z,95.85
2023-11-05T18:35:44.190Z,94.91
2023-11-05T18:38:11.031Z,93.43
2023-11-05T18:40:37.874Z,92.40
2023-11-05T18:43:04.626Z,93.27
2023-11-05T18:45:31.361Z,90.32
2023-11-05T18:47:58.198Z,89.82
2023-11-05T18:50:25.121Z,90.05
2023-11-05T18:52:51.802Z,91.21
2023-11-05T18:55:18.490Z,90.70
2023-11-05T18:57:45.189Z,89.56
2023-11-05T19:00:14.422Z,89.20
2023-11-05T19:02:41.640Z,89.65
2023-11-05T19:05:08.738Z,88.40
2023-11-05T19:07:35.586Z,86.68
2023-11-05T19:10:02.497Z,85.29
2023-11-05T19:12:29.168Z,85.03
2023-11-05T19:14:56.344Z,86.83
2023-11-05T19:17:23.148Z,85.01
2023-11-05T19:19:49.841Z,85.63
2023-11-05T19:22:16.679Z,85.75
2023-11-05T19:24:43.380Z,86.05
2023-11-05T19:27:10.170Z,86.01
2023-11-05T19:29:38.953Z,86.08
2023-11-05T19:32:08.555Z,86.18
2023-11-05T19:34:36.724Z,85.84
2023-11-05T19:37:03.884Z,86.13
2023-11-05T19:39:30.841Z,86.53
2023-11-05T19:41:57.627Z,86.60
2023-11-05T19:44:24.276Z,85.91
2023-11-05T19:46:54.442Z,87.56
2023-11-05T19:49:24.927Z,86.89
2023-11-05T19:51:52.313Z,87.18
2023-11-05T19:54:19.484Z,86.64
2023-11-05T19:56:46.320Z,87.16
2023-11-05T19:59:13.170Z,87.56
2023-11-05T20:01:41.491Z,87.43
2023-11-05T20:04:08.283Z,87.53
2023-11-05T20:06:34.952Z,87.87
2023-11-05T20:09:02.069Z,88.28
2023-11-05T20:11:30.366Z,88.65
2023-11-05T20:13:57.508Z,88.40
2023-11-05T20:16:24.714Z,89.40
2023-11-05T20:18:52.404Z,88.83
2023-11-05T20:21:20.089Z,89.09
2023-11-05T20:23:46.905Z,89.53
2023-11-05T20:26:13.967Z,88.59
2023-11-05T20:28:42.107Z,88.66
2023-11-05T20:31:10.677Z,89.05
2023-11-05T20:33:37.395Z,89.71
2023-11-05T20:36:04.354Z,89.45
2023-11-05T20:38:31.008Z,90.10
2023-11-05T20:40:57.862Z,90.69
2023-11-05T20:43:26.392Z,90.17
2023-11-05T20:45:53.427Z,90.45
2023-11-05T20:48:20.461Z,90.62
2023-11-05T20:50:47.426Z,91.62
2023-11-05T20:53:14.138Z,90.88
2023-11-05T20:55:41.348Z,91.26
2023-11-05T20:58:08.299Z,91.62
2023-11-05T21:00:37.020Z,91.74
2023-11-05T21:03:04.980Z,92.19
2023-11-05T21:05:32.265Z,92.08
2023-11-05T21:08:00.293Z,91.71
2023-11-05T21:10:27.775Z,93.06
2023-11-05T21:12:55.109Z,92.79
2023-11-05T21:15:21.908Z,93.11
2023-11-05T21:17:48.892Z,92.97
2023-11-05T21:20:15.844Z,93.20
2023-11-05T21:22:45.410Z,93.84
2023-11-05T21:25:13.021Z,93.01
2023-11-05T21:27:40.250Z,93.56
2023-11-05T21:30:10.812Z,93.59
2023-11-05T21:32:39.442Z,95.97
2023-11-05T21:35:06.968Z,94.92
2023-11-05T21:37:34.128Z,94.10
2023-11-05T21:40:01.062Z,93.82
2023-11-05T21:42:28.242Z,93.28
2023-11-05T21:44:55.017Z,92.77
2023-11-05T21:47:22.437Z,93.81
2023-11-05T21:49:49.369Z,94.71
2023-11-05T21:52:16.548Z,93.29
2023-11-05T21:54:43.226Z,92.83
2023-11-05T21:57:10.063Z,92.90
2023-11-05T21:59:36.795Z,91.99
2023-11-05T22:02:04.051Z,93.06
2023-11-05T22:04:32.330Z,92.49
2023-11-05T22:07:00.457Z,92.17
2023-11-05T22:09:27.334Z,91.88
2023-11-05T22:11:54.152Z,92.56
2023-11-05T22:14:21.342Z,91.75
2023-11-05T22:16:48.589Z,90.33
2023-11-05T22:19:16.244Z,91.19
2023-11-05T22:21:43.929Z,91.00
2023-11-05T22:24:13.126Z,89.72
2023-11-05T22:26:40.383Z,90.56
2023-11-05T22:29:08.134Z,89.83
2023-11-05T22:31:34.944Z,88.69
2023-11-05T22:34:02.874Z,89.13
2023-11-05T22:36:33.707Z,89.45
2023-11-05T22:39:00.690Z,89.23
2023-11-05T22:41:28.100Z,88.63
2023-11-05T22:43:57.060Z,87.61
2023-11-05T22:46:23.772Z,88.38
2023-11-05T22:48:50.775Z,90.17
2023-11-05T22:51:18.619Z,89.43
